createdAt,value
2018-12-06T00:02:21.008Z,1.45
2018-12-06T00:04:48.525Z,1.43
2018-12-06T00:07:16.661Z,1.41
2018-12-06T00:09:44.461Z,1.42
2018-12-06T00:12:12.112Z,1.37
2018-12-06T00:14:39.628Z,1.35
2018-12-06T00:17:07.429Z,1.34
2018-12-06T00:19:34.937Z,1.31
2018-12-06T00:22:02.453Z,1.31
2018-12-06T00:24:29.998Z,1.24
2018-12-06T00:26:57.729Z,1.23
2018-12-06T00:29:25.236Z,1.24
2018-12-06T00:31:53.093Z,1.17
2018-12-06T00:34:20.605Z,1.20
2018-12-06T00:36:48.112Z,1.18
2018-12-06T00:39:15.993Z,1.28
2018-12-06T00:41:43.504Z,1.21
2018-12-06T00:44:11.013Z,1.21
2018-12-06T00:46:38.781Z,1.15
2018-12-06T00:49:06.293Z,1.13
2018-12-06T00:51:33.933Z,1.23
2018-12-06T00:54:01.772Z,1.13
2018-12-06T00:56:29.295Z,1.13
2018-12-06T00:58:56.800Z,1.16
2018-12-06T01:01:24.629Z,1.12
2018-12-06T01:03:52.137Z,1.17
2018-12-06T01:06:19.651Z,1.11
2018-12-06T01:08:47.428Z,1.14
2018-12-06T01:11:14.937Z,1.12
2018-12-06T01:13:42.449Z,1.08
2018-12-06T01:16:10.315Z,1.11
2018-12-06T01:18:37.824Z,1.06
2018-12-06T01:21:05.328Z,1.06
2018-12-06T01:23:33.105Z,1.09
2018-12-06T01:26:00.628Z,1.09
2018-12-06T01:28:28.150Z,1.03
2018-12-06T01:30:56.093Z,0.99
2018-12-06T01:33:23.604Z,0.99
2018-12-06T01:35:51.114Z,0.93
2018-12-06T01:38:18.872Z,1.05
2018-12-06T01:40:46.876Z,0.94
2018-12-06T01:43:14.388Z,0.96
2018-12-06T01:45:42.208Z,0.90
2018-12-06T01:48:10.141Z,0.85
2018-12-06T01:50:37.645Z,0.87
2018-12-06T01:53:05.407Z,0.92
2018-12-06T01:55:32.917Z,0.82
2018-12-06T01:58:00.416Z,0.93
2018-12-06T02:00:28.261Z,0.77
2018-12-06T02:02:55.777Z,0.77
2018-12-06T02:05:23.287Z,0.74
2018-12-06T02:07:51.137Z,0.79
2018-12-06T02:10:18.686Z,0.78
2018-12-06T02:12:46.193Z,0.67
2018-12-06T02:15:13.743Z,0.76
2018-12-06T02:17:41.253Z,0.72
2018-12-06T02:20:08.796Z,0.84
2018-12-06T02:22:36.607Z,0.71
2018-12-06T02:25:04.464Z,0.71
2018-12-06T02:27:31.970Z,0.76
2018-12-06T02:29:59.504Z,0.74
2018-12-06T02:32:27.018Z,0.75
2018-12-06T02:34:54.528Z,0.76
2018-12-06T02:37:22.306Z,0.72
2018-12-06T02:39:49.822Z,0.73
2018-12-06T02:42:17.334Z,0.66
2018-12-06T02:44:44.868Z,0.66
2018-12-06T02:47:12.377Z,0.63
2018-12-06T02:49:39.900Z,0.62
2018-12-06T02:52:07.748Z,0.71
2018-12-06T02:54:35.279Z,0.58
2018-12-06T02:57:02.785Z,0.65
2018-12-06T02:59:30.569Z,0.60
2018-12-06T03:01:58.091Z,0.58
2018-12-06T03:04:25.601Z,0.58
2018-12-06T03:06:53.106Z,0.48
2018-12-06T03:09:20.619Z,0.50
2018-12-06T03:11:48.161Z,0.49
2018-12-06T03:14:15.671Z,0.50
2018-12-06T03:16:43.181Z,0.53
2018-12-06T03:19:10.726Z,0.58
2018-12-06T03:21:38.250Z,0.51
2018-12-06T03:24:05.751Z,0.45
2018-12-06T03:26:33.683Z,0.43
2018-12-06T03:29:02.621Z,0.37
2018-12-06T03:31:30.451Z,0.43
2018-12-06T03:33:58.326Z,0.44
2018-12-06T03:36:25.832Z,0.47
2018-12-06T03:38:53.345Z,0.43
2018-12-06T03:41:20.889Z,0.41
2018-12-06T03:43:48.405Z,0.38
2018-12-06T03:46:15.917Z,0.48
2018-12-06T03:48:43.801Z,0.39
2018-12-06T03:51:11.307Z,0.41
2018-12-06T03:53:38.817Z,0.51
2018-12-06T03:56:06.571Z,0.49
2018-12-06T03:58:34.090Z,0.56
2018-12-06T04:01:01.605Z,0.46
2018-12-06T04:03:29.376Z,0.41
2018-12-06T04:05:56.875Z,0.44
2018-12-06T04:08:24.376Z,0.45
2018-12-06T04:10:51.917Z,0.41
2018-12-06T04:13:19.424Z,0.40
2018-12-06T04:15:46.924Z,0.33
2018-12-06T04:18:14.725Z,0.30
2018-12-06T04:20:42.224Z,0.33
2018-12-06T04:23:09.736Z,0.32
2018-12-06T04:25:37.289Z,0.32
2018-12-06T04:28:04.814Z,0.31
2018-12-06T04:30:32.319Z,0.32
2018-12-06T04:33:00.104Z,0.40
2018-12-06T04:35:29.856Z,0.27
2018-12-06T04:37:57.376Z,0.23
2018-12-06T04:40:24.910Z,0.26
2018-12-06T04:42:52.426Z,0.32
2018-12-06T04:45:20.003Z,0.30
2018-12-06T04:47:47.729Z,0.27
2018-12-06T04:50:15.245Z,0.26
2018-12-06T04:52:42.769Z,0.28
2018-12-06T04:55:10.689Z,0.32
2018-12-06T04:57:38.197Z,0.35
2018-12-06T05:00:05.956Z,0.42
2018-12-06T05:02:33.778Z,0.41
2018-12-06T05:05:01.476Z,0.39
2018-12-06T05:07:29.071Z,0.37
2018-12-06T05:09:56.887Z,0.42
2018-12-06T05:12:24.406Z,0.43
2018-12-06T05:14:51.927Z,0.47
2018-12-06T05:17:19.676Z,0.41
2018-12-06T05:19:47.180Z,0.47
2018-12-06T05:22:14.696Z,0.49
2018-12-06T05:24:42.538Z,0.43
2018-12-06T05:27:10.046Z,0.43
2018-12-06T05:29:37.663Z,0.35
2018-12-06T05:32:05.528Z,0.34
2018-12-06T05:34:33.044Z,0.34
2018-12-06T05:37:00.559Z,0.29
2018-12-06T05:39:28.649Z,0.37
2018-12-06T05:41:56.148Z,0.36
2018-12-06T05:44:24.595Z,0.24
2018-12-06T05:46:52.429Z,0.29
2018-12-06T05:49:19.960Z,0.26
2018-12-06T05:51:47.653Z,0.18
2018-12-06T05:54:15.530Z,0.30
2018-12-06T05:56:43.247Z,0.27
2018-12-06T05:59:10.850Z,0.23
2018-12-06T06:01:38.392Z,0.19
2018-12-06T06:04:10.606Z,0.16
2018-12-06T06:06:41.157Z,0.22
2018-12-06T06:09:08.673Z,0.07
2018-12-06T06:11:36.185Z,0.03
2018-12-06T06:14:03.960Z,-0.04
2018-12-06T06:16:32.206Z,-0.04
2018-12-06T06:18:59.816Z,0.02
2018-12-06T06:21:27.388Z,0.11
2018-12-06T06:23:54.957Z,0.12
2018-12-06T06:26:22.514Z,0.18
2018-12-06T06:28:50.378Z,0.28
2018-12-06T06:31:17.902Z,0.29
2018-12-06T06:33:45.404Z,0.28
2018-12-06T06:36:12.967Z,0.38
2018-12-06T06:38:40.477Z,0.41
2018-12-06T06:41:07.983Z,0.33
2018-12-06T06:43:35.892Z,0.37
2018-12-06T06:46:03.469Z,0.41
2018-12-06T06:48:30.991Z,0.37
2018-12-06T06:50:58.941Z,0.46
2018-12-06T06:53:26.468Z,0.57
2018-12-06T07:27:31.975Z,1.10
2018-12-06T07:29:59.866Z,1.22
2018-12-06T07:32:27.388Z,1.14
2018-12-06T07:34:54.915Z,1.01
2018-12-06T07:37:23.000Z,1.12
2018-12-06T07:39:50.506Z,0.99
2018-12-06T07:42:18.058Z,1.00
2018-12-06T07:44:45.837Z,1.02
2018-12-06T07:47:13.353Z,1.11
2018-12-06T07:49:40.869Z,0.89
2018-12-06T07:52:08.621Z,0.63
2018-12-06T07:54:36.128Z,0.63
2018-12-06T07:57:07.417Z,0.72
2018-12-06T07:59:35.280Z,0.67
2018-12-06T08:02:02.799Z,0.87
2018-12-06T08:04:30.313Z,0.98
2018-12-06T08:06:58.005Z,1.06
2018-12-06T08:09:25.533Z,0.98
2018-12-06T08:11:53.058Z,0.96
2018-12-06T08:14:20.952Z,1.19
2018-12-06T08:16:48.477Z,1.27
2018-12-06T08:19:15.984Z,1.19
2018-12-06T08:21:43.848Z,1.16
2018-12-06T08:24:11.356Z,1.13
2018-12-06T08:26:38.862Z,1.26
2018-12-06T08:29:06.856Z,1.40
2018-12-06T08:31:34.424Z,1.68
2018-12-06T08:34:06.135Z,1.90
2018-12-06T08:36:31.752Z,2.00
2018-12-06T08:38:59.264Z,2.05
2018-12-06T08:41:26.781Z,2.22
2018-12-06T08:43:54.477Z,2.41
2018-12-06T08:46:22.117Z,2.46
2018-12-06T08:48:49.633Z,2.72
2018-12-06T08:51:17.396Z,3.05
2018-12-06T08:53:44.922Z,3.03
2018-12-06T08:56:12.463Z,3.24
2018-12-06T08:58:40.535Z,3.45
2018-12-06T09:01:08.608Z,3.90
2018-12-06T09:03:36.284Z,3.99
2018-12-06T09:06:03.877Z,3.52
2018-12-06T09:08:31.620Z,3.61
2018-12-06T09:10:59.127Z,3.40
2018-12-06T09:13:27.129Z,3.70
2018-12-06T09:15:54.641Z,3.90
2018-12-06T09:18:22.154Z,3.80
2018-12-06T09:20:50.050Z,3.58
2018-12-06T09:23:17.677Z,3.33
2018-12-06T09:25:46.364Z,3.24
2018-12-06T09:28:14.340Z,3.15
2018-12-06T09:30:41.861Z,3.44
2018-12-06T09:33:09.374Z,3.32
2018-12-06T09:35:36.929Z,3.04
2018-12-06T09:38:04.581Z,3.04
2018-12-06T09:40:32.108Z,3.01
2018-12-06T09:43:00.264Z,2.94
2018-12-06T09:45:27.785Z,3.00
2018-12-06T09:47:55.311Z,3.20
2018-12-06T09:50:23.036Z,3.33
2018-12-06T09:52:50.557Z,3.29
2018-12-06T09:55:18.073Z,3.35
2018-12-06T09:57:45.636Z,3.32
2018-12-06T10:00:15.314Z,3.38
2018-12-06T10:02:42.932Z,3.42
2018-12-06T10:05:10.717Z,3.43
2018-12-06T10:07:38.236Z,3.59
2018-12-06T10:10:06.403Z,3.60
2018-12-06T10:12:34.233Z,3.43
2018-12-06T10:15:01.836Z,3.37
2018-12-06T10:17:29.367Z,3.55
2018-12-06T10:19:57.196Z,3.54
2018-12-06T10:22:24.743Z,3.63
2018-12-06T10:24:52.301Z,3.49
2018-12-06T10:27:19.841Z,3.56
2018-12-06T10:29:47.344Z,3.77
2018-12-06T10:32:14.849Z,3.85
2018-12-06T10:34:42.672Z,3.70
2018-12-06T10:37:10.207Z,3.53
2018-12-06T10:39:37.712Z,3.37
2018-12-06T10:42:05.260Z,3.16
2018-12-06T10:44:32.777Z,3.17
2018-12-06T10:47:00.282Z,3.26
2018-12-06T11:02:29.971Z,4.44
2018-12-06T11:04:57.477Z,4.38
2018-12-06T11:07:24.988Z,4.25
2018-12-06T11:09:53.058Z,4.23
2018-12-06T11:12:20.601Z,4.27
2018-12-06T11:14:48.135Z,4.23
2018-12-06T11:17:15.686Z,4.18
2018-12-06T11:19:43.218Z,4.04
2018-12-06T11:22:10.738Z,3.95
2018-12-06T11:24:38.603Z,3.82
2018-12-06T11:27:06.126Z,4.04
2018-12-06T11:29:33.634Z,4.06
2018-12-06T11:32:01.485Z,4.04
2018-12-06T11:34:29.022Z,4.00
2018-12-06T11:36:56.543Z,3.92
2018-12-06T11:39:24.089Z,3.91
2018-12-06T11:41:51.609Z,3.89
2018-12-06T11:44:19.120Z,3.88
2018-12-06T11:46:46.768Z,4.04
2018-12-06T11:49:14.327Z,4.08
2018-12-06T11:51:41.856Z,4.09
2018-12-06T11:54:09.868Z,4.22
2018-12-06T11:56:37.396Z,4.17
2018-12-06T11:59:04.985Z,4.01
2018-12-06T12:01:32.770Z,4.05
2018-12-06T12:04:00.317Z,3.86
2018-12-06T12:06:28.482Z,4.13
2018-12-06T12:08:56.277Z,4.10
2018-12-06T12:11:23.793Z,4.07
2018-12-06T12:13:51.383Z,4.04
2018-12-06T12:16:19.246Z,4.00
2018-12-06T12:18:46.804Z,3.98
2018-12-06T12:21:14.875Z,3.99
2018-12-06T12:23:42.749Z,4.07
2018-12-06T12:26:10.285Z,4.08
2018-12-06T12:28:37.801Z,4.13
2018-12-06T12:31:05.560Z,4.31
2018-12-06T12:33:33.099Z,4.33
2018-12-06T12:36:00.638Z,4.35
2018-12-06T12:38:28.454Z,4.31
2018-12-06T12:40:55.996Z,4.34
2018-12-06T12:43:23.513Z,4.36
2018-12-06T12:45:51.337Z,4.25
2018-12-06T12:48:18.863Z,4.07
2018-12-06T12:50:46.375Z,4.23
2018-12-06T12:53:14.290Z,4.22
2018-12-06T12:55:41.867Z,4.04
2018-12-06T12:58:09.386Z,3.88
2018-12-06T13:00:37.304Z,3.85
2018-12-06T13:03:04.855Z,3.85
2018-12-06T13:05:32.389Z,3.93
2018-12-06T13:08:00.220Z,3.97
2018-12-06T13:10:27.848Z,3.94
2018-12-06T13:12:55.380Z,3.81
2018-12-06T13:15:23.908Z,3.96
2018-12-06T13:17:51.545Z,3.95
2018-12-06T13:20:19.083Z,3.81
2018-12-06T13:22:46.847Z,3.85
2018-12-06T13:25:14.406Z,3.84
2018-12-06T13:27:41.967Z,4.01
2018-12-06T13:30:09.848Z,3.94
2018-12-06T13:32:37.434Z,3.94
2018-12-06T13:35:05.468Z,4.00
2018-12-06T13:37:33.125Z,4.00
2018-12-06T13:40:00.697Z,3.77
2018-12-06T13:42:28.229Z,3.86
2018-12-06T13:44:56.048Z,3.77
2018-12-06T13:47:23.587Z,3.75
2018-12-06T13:49:51.095Z,3.72
2018-12-06T13:52:18.866Z,3.67
2018-12-06T13:54:46.378Z,3.71
2018-12-06T13:57:13.997Z,3.67
2018-12-06T13:59:41.864Z,3.55
2018-12-06T14:02:09.385Z,3.59
2018-12-06T14:04:37.012Z,3.54
2018-12-06T14:07:04.900Z,3.31
2018-12-06T14:09:32.550Z,3.24
2018-12-06T14:12:00.078Z,3.20
2018-12-06T14:14:27.632Z,3.15
2018-12-06T14:16:55.153Z,3.07
2018-12-06T14:19:22.669Z,3.01
2018-12-06T14:21:50.403Z,3.04
2018-12-06T14:24:17.925Z,2.93
2018-12-06T14:26:45.465Z,2.89
2018-12-06T14:29:13.029Z,2.82
2018-12-06T14:31:40.561Z,2.78
2018-12-06T14:34:08.080Z,2.72
2018-12-06T14:36:35.604Z,2.61
2018-12-06T14:39:04.576Z,2.56
2018-12-06T14:41:32.289Z,2.43
2018-12-06T14:43:59.826Z,2.37
2018-12-06T14:46:27.459Z,2.31
2018-12-06T14:48:55.435Z,2.21
2018-12-06T14:51:22.953Z,2.17
2018-12-06T14:53:50.555Z,2.08
2018-12-06T14:56:18.333Z,2.04
2018-12-06T14:58:45.848Z,1.97
2018-12-06T15:01:13.442Z,1.92
2018-12-06T15:03:41.028Z,1.92
2018-12-06T15:06:08.601Z,1.81
2018-12-06T15:08:36.124Z,1.72
2018-12-06T15:11:03.687Z,1.71
2018-12-06T15:13:31.249Z,1.73
2018-12-06T15:15:58.769Z,1.60
2018-12-06T15:18:26.676Z,1.57
2018-12-06T15:20:54.198Z,1.52
2018-12-06T15:23:21.729Z,1.50
2018-12-06T15:25:49.586Z,1.48
2018-12-06T15:28:17.104Z,1.39
2018-12-06T15:30:44.637Z,1.34
2018-12-06T15:33:12.201Z,1.22
2018-12-06T15:35:39.773Z,1.16
2018-12-06T15:38:07.293Z,1.09
2018-12-06T15:40:35.105Z,1.15
2018-12-06T15:43:02.741Z,1.07
2018-12-06T15:45:30.277Z,1.06
2018-12-06T15:47:58.176Z,0.99
2018-12-06T15:50:25.728Z,0.93
2018-12-06T15:52:53.295Z,0.95
2018-12-06T15:55:20.842Z,0.89
2018-12-06T15:57:48.403Z,0.88
2018-12-06T16:00:15.922Z,0.81
2018-12-06T16:02:43.836Z,0.82
2018-12-06T16:05:11.399Z,0.82
2018-12-06T16:07:39.254Z,0.78
2018-12-06T16:10:09.283Z,0.73
2018-12-06T16:12:36.793Z,0.74
2018-12-06T16:15:05.755Z,0.67
2018-12-06T16:17:34.140Z,0.65
2018-12-06T16:20:01.788Z,0.56
2018-12-06T16:22:29.337Z,0.66
2018-12-06T16:24:57.245Z,0.61
2018-12-06T16:27:24.763Z,0.44
2018-12-06T16:29:52.305Z,0.37
2018-12-06T16:32:19.897Z,0.36
2018-12-06T16:34:47.415Z,0.35
2018-12-06T16:37:15.077Z,0.35
2018-12-06T16:39:42.812Z,0.35
2018-12-06T16:42:10.392Z,0.30
2018-12-06T16:44:37.920Z,0.22
2018-12-06T16:47:05.551Z,0.19
2018-12-06T16:49:48.447Z,0.21
2018-12-06T16:52:16.010Z,0.27
2018-12-06T16:54:43.526Z,0.31
2018-12-06T16:57:11.097Z,0.27
2018-12-06T16:59:38.885Z,0.20
2018-12-06T17:02:06.533Z,0.25
2018-12-06T17:04:34.081Z,0.32
2018-12-06T17:07:01.846Z,0.33
2018-12-06T17:09:29.404Z,0.34
2018-12-06T17:11:57.432Z,0.33
2018-12-06T17:14:25.021Z,0.22
2018-12-06T17:16:52.541Z,0.15
2018-12-06T17:19:20.111Z,0.16
2018-12-06T17:21:47.876Z,0.17
2018-12-06T17:24:15.497Z,0.14
2018-12-06T17:26:43.065Z,0.04
2018-12-06T17:29:10.682Z,-0.02
2018-12-06T17:31:38.255Z,-0.06
2018-12-06T17:34:05.835Z,-0.07
2018-12-06T17:36:33.616Z,-0.10
2018-12-06T17:39:01.220Z,-0.16
2018-12-06T17:41:28.882Z,-0.11
2018-12-06T17:43:56.717Z,-0.09
2018-12-06T17:46:24.357Z,-0.04
2018-12-06T17:48:51.881Z,-0.02
2018-12-06T17:51:19.440Z,-0.07
2018-12-06T17:53:52.280Z,-0.06
2018-12-06T17:56:16.628Z,-0.14
2018-12-06T17:58:44.958Z,-0.22
2018-12-06T18:01:12.697Z,-0.22
2018-12-06T18:03:40.254Z,-0.32
2018-12-06T18:06:08.072Z,-0.34
2018-12-06T18:08:35.597Z,-0.39
2018-12-06T18:11:03.150Z,-0.34
2018-12-06T18:13:30.961Z,-0.38
2018-12-06T18:15:58.485Z,-0.35
2018-12-06T18:18:26.031Z,-0.37
2018-12-06T18:20:53.646Z,-0.36
2018-12-06T18:23:21.255Z,-0.43
2018-12-06T18:25:48.772Z,-0.49
2018-12-06T18:28:16.601Z,-0.47
2018-12-06T18:30:44.243Z,-0.48
2018-12-06T18:33:12.124Z,-0.47
2018-12-06T18:35:39.697Z,-0.49
2018-12-06T18:38:07.225Z,-0.51
2018-12-06T18:40:34.891Z,-0.46
2018-12-06T18:43:02.783Z,-0.40
2018-12-06T18:45:30.422Z,-0.39
2018-12-06T18:47:57.940Z,-0.36
2018-12-06T18:50:26.323Z,-0.37
2018-12-06T18:52:53.854Z,-0.41
2018-12-06T18:55:21.421Z,-0.55
2018-12-06T18:57:48.988Z,-0.65
2018-12-06T19:00:16.661Z,-0.71
2018-12-06T19:02:44.196Z,-0.66
2018-12-06T19:05:11.793Z,-0.74
2018-12-06T19:07:39.407Z,-0.83
2018-12-06T19:10:07.780Z,-0.87
2018-12-06T19:12:35.555Z,-0.93
2018-12-06T19:15:03.360Z,-0.95
2018-12-06T19:17:30.961Z,-0.98
2018-12-06T19:19:58.524Z,-1.00
2018-12-06T19:22:26.068Z,-1.03
2018-12-06T19:24:53.587Z,-0.99
2018-12-06T19:27:21.377Z,-1.00
2018-12-06T19:29:48.910Z,-0.90
2018-12-06T19:32:16.444Z,-0.89
2018-12-06T19:34:44.442Z,-0.81
2018-12-06T19:37:18.337Z,-0.70
2018-12-06T19:39:46.204Z,-0.67
2018-12-06T19:42:13.754Z,-0.77
2018-12-06T19:44:42.127Z,-0.80
2018-12-06T19:47:10.038Z,-0.86
2018-12-06T19:49:37.573Z,-0.88
2018-12-06T19:52:05.775Z,-0.93
2018-12-06T19:54:33.841Z,-0.92
2018-12-06T19:57:01.387Z,-1.04
2018-12-06T19:59:28.908Z,-1.07
2018-12-06T20:01:56.815Z,-1.00
2018-12-06T20:04:24.365Z,-1.11
2018-12-06T20:06:51.881Z,-1.26
2018-12-06T20:09:19.689Z,-1.27
2018-12-06T20:11:47.239Z,-1.36
2018-12-06T20:14:14.779Z,-1.40
2018-12-06T20:16:42.358Z,-1.37
2018-12-06T20:19:09.901Z,-1.29
2018-12-06T20:21:37.483Z,-1.22
2018-12-06T20:24:05.097Z,-1.29
2018-12-06T20:26:32.629Z,-1.46
2018-12-06T20:29:00.171Z,-1.53
2018-12-06T20:31:27.989Z,-1.58
2018-12-06T20:33:55.655Z,-1.66
2018-12-06T20:36:23.194Z,-1.64
2018-12-06T20:38:50.749Z,-1.59
2018-12-06T20:41:18.301Z,-1.53
2018-12-06T20:43:45.830Z,-1.57
2018-12-06T20:46:13.552Z,-1.55
2018-12-06T20:48:41.092Z,-1.52
2018-12-06T20:51:08.765Z,-1.45
2018-12-06T20:53:36.539Z,-1.45
2018-12-06T20:56:04.087Z,-1.47
2018-12-06T20:58:31.720Z,-1.52
2018-12-06T21:00:59.604Z,-1.54
2018-12-06T21:03:27.129Z,-1.59
2018-12-06T21:05:54.657Z,-1.60
2018-12-06T21:08:23.121Z,-1.67
2018-12-06T21:10:50.669Z,-1.74
2018-12-06T21:13:18.202Z,-1.77
2018-12-06T21:15:46.154Z,-1.84
2018-12-06T21:18:13.733Z,-1.87
2018-12-06T21:20:41.295Z,-1.96
2018-12-06T21:23:09.101Z,-2.04
2018-12-06T21:25:36.840Z,-2.13
2018-12-06T21:28:05.149Z,-2.13
2018-12-06T21:30:33.348Z,-2.08
2018-12-06T21:33:01.722Z,-2.09
2018-12-06T21:35:29.433Z,-2.05
2018-12-06T21:37:57.171Z,-2.09
2018-12-06T21:40:24.736Z,-2.07
2018-12-06T21:42:52.261Z,-2.09
2018-12-06T21:45:19.858Z,-2.03
2018-12-06T21:47:47.613Z,-2.06
2018-12-06T21:50:15.904Z,-2.06
2018-12-06T21:52:43.926Z,-2.09
2018-12-06T21:55:11.449Z,-2.10
2018-12-06T21:57:38.989Z,-2.03
2018-12-06T22:00:07.309Z,-1.97
2018-12-06T22:02:34.856Z,-2.00
2018-12-06T22:05:02.432Z,-2.03
2018-12-06T22:07:30.296Z,-2.16
2018-12-06T22:09:57.842Z,-2.21
2018-12-06T22:12:25.391Z,-2.25
2018-12-06T22:14:52.983Z,-2.32
2018-12-06T22:17:20.506Z,-2.25
2018-12-06T22:19:48.037Z,-2.29
2018-12-06T22:22:15.607Z,-2.34
2018-12-06T22:24:43.133Z,-2.38
2018-12-06T22:27:10.657Z,-2.38
2018-12-06T22:29:38.466Z,-2.35
2018-12-06T22:32:06.116Z,-2.34
2018-12-06T22:34:33.655Z,-2.35
2018-12-06T22:37:01.545Z,-2.47
2018-12-06T22:39:29.198Z,-2.50
2018-12-06T22:41:56.722Z,-2.53
2018-12-06T22:44:25.536Z,-2.56
2018-12-06T22:46:53.204Z,-2.57
2018-12-06T22:49:20.852Z,-2.62
2018-12-06T22:51:48.754Z,-2.63
2018-12-06T22:54:16.284Z,-2.62
2018-12-06T22:56:43.816Z,-2.67
2018-12-06T22:59:11.653Z,-2.72
2018-12-06T23:01:40.406Z,-2.60
2018-12-06T23:04:08.314Z,-2.52
2018-12-06T23:06:36.202Z,-2.52
2018-12-06T23:09:06.665Z,-2.53
2018-12-06T23:11:34.180Z,-2.55
2018-12-06T23:14:02.205Z,-2.53
2018-12-06T23:16:30.710Z,-2.68
2018-12-06T23:18:58.226Z,-2.78
2018-12-06T23:21:26.032Z,-2.76
2018-12-06T23:23:53.559Z,-2.82
2018-12-06T23:26:21.076Z,-2.83
2018-12-06T23:28:48.921Z,-2.80
2018-12-06T23:31:16.501Z,-2.78
2018-12-06T23:33:44.011Z,-2.84
2018-12-06T23:36:11.737Z,-2.95
2018-12-06T23:38:39.416Z,-2.99
2018-12-06T23:41:06.929Z,-3.07
2018-12-06T23:43:34.801Z,-3.08
2018-12-06T23:46:02.348Z,-3.12
2018-12-06T23:48:29.898Z,-3.13
2018-12-06T23:51:01.791Z,-3.19
2018-12-06T23:53:29.318Z,-3.18
2018-12-06T23:55:56.834Z,-3.18
2018-12-06T23:58:24.669Z,-3.15
